Airfield :
LOGIN :

Register | Disclaimer

   EN    FR    IT 

 










Legend :    VFR   Marginal VFR   IFR   Intensive IFR   Very Intensive IFR
Visi :
Ceiling :
>= 8 km
>= 3000ft
5 to 8 km
1000 to 3000 ft
1500m to 5 km
500 to 1000 ft
800 to 1500m
200 to 500 ft
< 800m
< 200 ft
Symbols :   Thunderstorms  Fog  Heavy snow  Heavy precipitations  Wind > 20 kt
SIGMETs :     Misc.  Thunderstorms  Icing  Turbulence  Mountain Waves  Volcanic Ashes







- Airport Elevation : 11 ft
- IATA code : MJV


LELC - Murcia San Javier

CURRENT METAR :
  • 241000Z 03024KT 360V060 CAVOK 22/12 Q1015 NOSIG

EXPIRED METARs :
  • 240900Z 03019KT CAVOK 21/12 Q1015 NOSIG
  • 240834Z 03020G30KT 010V070 CAVOK 21/12 Q1015 NOSIG
  • 240800Z 03021KT CAVOK 20/12 Q1015 NOSIG

TAF TAF LELC
Valid from the 24 at 06:00 until the 25 at 06:00 UTC


240500Z 2406/2506 04018KT 9999 FEW045 TX23/2413Z TN16/2505Z
TEMPO 2406/2420 04022G32KT
PROB40
TEMPO 2406/2411 04028G40KT
BECMG 2423/2502 04008KT
No reported NOTAMs for that airfield.



MET'MAP, your aeronautical weather chart ! - Copyright ORBIFLY December 2007 - Disclaimer

ORBIFLY MET'MAP TEAM :

Programming & Development : Alexandra Zaïnal
Concept & Development : Baudouin d'Aumeries
Co-Development & Prog : Marc-Olivier Méhu
Technical & hardware support : Manuel Goepfert

Contact : metmap@orbifly.com




SOURCES & CREDITS :

   NOAA